createdAt,value
2019-03-20T00:04:09.109Z,3.67
2019-03-20T00:09:11.226Z,3.50
2019-03-20T00:14:13.284Z,3.48
2019-03-20T00:19:15.383Z,3.48
2019-03-20T00:24:17.885Z,3.39
2019-03-20T00:29:19.938Z,3.20
2019-03-20T00:34:22.232Z,3.15
2019-03-20T00:39:24.295Z,3.17
2019-03-20T00:44:26.450Z,3.01
2019-03-20T00:49:28.466Z,2.96
2019-03-20T00:54:30.536Z,2.98
2019-03-20T00:59:32.536Z,3.05
2019-03-20T01:04:34.718Z,2.93
2019-03-20T01:09:36.933Z,2.84
2019-03-20T01:14:39.052Z,2.77
2019-03-20T01:19:41.360Z,2.66
2019-03-20T01:24:43.807Z,2.76
2019-03-20T01:29:45.871Z,2.65
2019-03-20T01:34:48.040Z,2.71
2019-03-20T01:39:50.442Z,2.62
2019-03-20T01:44:53.987Z,2.56
2019-03-20T01:49:56.037Z,2.56
2019-03-20T01:54:58.138Z,2.45
2019-03-20T02:00:00.342Z,2.37
2019-03-20T02:05:03.802Z,2.42
2019-03-20T02:10:07.011Z,2.40
2019-03-20T02:15:10.998Z,2.36
2019-03-20T02:20:14.162Z,2.26
2019-03-20T02:25:17.840Z,2.21
2019-03-20T02:30:20.203Z,2.17
2019-03-20T02:35:22.212Z,2.19
2019-03-20T02:40:24.521Z,2.07
2019-03-20T02:45:26.590Z,2.04
2019-03-20T02:50:29.080Z,2.05
2019-03-20T02:55:31.133Z,2.16
2019-03-20T03:00:33.538Z,2.10
2019-03-20T03:05:35.806Z,2.12
2019-03-20T03:10:37.844Z,1.96
2019-03-20T03:15:40.625Z,1.85
2019-03-20T03:20:42.629Z,1.76
2019-03-20T03:25:45.044Z,1.81
2019-03-20T03:30:47.157Z,1.81
2019-03-20T03:35:49.195Z,1.72
2019-03-20T03:40:54.000Z,1.78
2019-03-20T03:45:58.178Z,1.74
2019-03-20T03:51:00.603Z,1.60
2019-03-20T03:56:02.983Z,1.59
2019-03-20T04:01:05.028Z,1.55
2019-03-20T04:06:07.521Z,1.57
2019-03-20T04:11:09.829Z,1.57
2019-03-20T04:16:12.422Z,1.43
2019-03-20T04:21:14.542Z,1.51
2019-03-20T04:26:16.539Z,1.49
2019-03-20T04:31:18.881Z,1.42
2019-03-20T04:36:20.957Z,1.39
2019-03-20T04:41:22.998Z,1.32
2019-03-20T04:46:25.087Z,1.21
2019-03-20T04:51:27.120Z,1.09
2019-03-20T04:56:29.400Z,1.21
2019-03-20T05:01:31.459Z,0.97
2019-03-20T05:06:33.984Z,1.07
2019-03-20T05:11:35.984Z,1.13
2019-03-20T05:16:38.105Z,1.13
2019-03-20T05:21:40.623Z,1.16
2019-03-20T05:26:42.815Z,1.18
2019-03-20T05:31:45.033Z,1.13
2019-03-20T05:36:47.225Z,1.09
2019-03-20T05:41:49.275Z,1.19
2019-03-20T05:46:51.432Z,1.26
2019-03-20T05:51:53.504Z,1.18
2019-03-20T05:56:55.722Z,1.21
2019-03-20T06:01:57.883Z,1.35
2019-03-20T06:07:00.225Z,1.31
2019-03-20T06:12:02.422Z,1.40
2019-03-20T06:17:04.505Z,1.60
2019-03-20T06:22:06.547Z,1.77
2019-03-20T06:27:08.870Z,1.70
2019-03-20T06:32:11.328Z,1.87
2019-03-20T06:37:13.435Z,1.91
2019-03-20T06:42:15.480Z,1.93
2019-03-20T06:47:17.562Z,2.37
2019-03-20T06:52:24.511Z,2.19
2019-03-20T06:57:26.798Z,2.27
2019-03-20T07:02:28.849Z,2.24
2019-03-20T07:07:43.670Z,2.37
2019-03-20T07:12:38.743Z,2.54
2019-03-20T07:17:41.055Z,2.76
2019-03-20T07:22:43.389Z,2.74
2019-03-20T07:27:45.472Z,2.94
2019-03-20T07:32:47.571Z,3.11
2019-03-20T07:37:55.913Z,3.06
2019-03-20T07:42:53.786Z,3.33
2019-03-20T07:47:56.154Z,3.37
2019-03-20T07:52:58.303Z,3.44
2019-03-20T07:58:00.558Z,3.54
2019-03-20T08:03:02.699Z,3.58
2019-03-20T08:08:07.663Z,3.85
2019-03-20T08:13:08.744Z,3.98
2019-03-20T08:18:12.083Z,4.09
2019-03-20T08:23:14.170Z,4.14
2019-03-20T08:28:16.126Z,4.33
2019-03-20T08:33:18.287Z,4.48
2019-03-20T08:38:21.490Z,4.52
2019-03-20T08:43:23.565Z,4.72
2019-03-20T08:48:25.916Z,4.73
2019-03-20T08:53:27.987Z,5.01
2019-03-20T08:58:30.392Z,5.02
2019-03-20T09:03:32.419Z,5.52
2019-03-20T09:08:34.453Z,5.60
2019-03-20T09:13:36.724Z,5.80
2019-03-20T09:18:38.782Z,5.88
2019-03-20T09:23:40.984Z,6.18
2019-03-20T09:28:43.293Z,6.30
2019-03-20T09:33:45.438Z,6.38
2019-03-20T09:38:47.439Z,6.69
2019-03-20T09:43:49.596Z,6.78
2019-03-20T09:48:51.679Z,7.03
2019-03-20T09:53:53.736Z,7.15
2019-03-20T09:58:55.781Z,7.38
2019-03-20T10:03:57.922Z,7.45
2019-03-20T10:09:01.923Z,7.78
2019-03-20T10:14:06.429Z,8.11
2019-03-20T10:19:08.489Z,8.24
2019-03-20T10:24:11.021Z,8.33
2019-03-20T10:29:13.435Z,8.59
2019-03-20T10:34:15.496Z,8.72
2019-03-20T10:39:17.897Z,9.01
2019-03-20T10:44:20.082Z,9.07
2019-03-20T10:49:23.461Z,9.24
2019-03-20T10:54:25.489Z,9.33
2019-03-20T10:59:27.691Z,9.28
2019-03-20T11:04:31.004Z,9.56
2019-03-20T11:09:33.097Z,9.65
2019-03-20T11:14:35.393Z,9.65
2019-03-20T11:19:37.560Z,9.69
2019-03-20T11:24:39.605Z,9.81
2019-03-20T11:29:41.789Z,9.98
2019-03-20T11:34:44.212Z,10.42
2019-03-20T11:39:46.708Z,10.21
2019-03-20T11:44:48.788Z,10.49
2019-03-20T11:49:50.855Z,10.33
2019-03-20T11:54:53.232Z,10.51
2019-03-20T11:59:55.381Z,10.61
2019-03-20T12:04:57.451Z,10.61
2019-03-20T12:09:59.566Z,10.48
2019-03-20T12:15:01.569Z,10.57
2019-03-20T12:20:05.928Z,10.51
2019-03-20T12:25:10.620Z,10.75
2019-03-20T12:30:14.703Z,10.85
2019-03-20T12:35:16.978Z,11.20
2019-03-20T12:40:23.571Z,11.41
2019-03-20T12:45:27.358Z,11.41
2019-03-20T12:50:29.712Z,11.61
2019-03-20T12:55:31.868Z,11.60
2019-03-20T13:00:33.990Z,11.60
2019-03-20T13:05:36.141Z,11.49
2019-03-20T13:10:38.235Z,11.39
2019-03-20T13:15:40.456Z,11.23
2019-03-20T13:20:42.781Z,11.83
2019-03-20T13:25:44.871Z,11.96
2019-03-20T13:30:56.040Z,11.96
2019-03-20T13:35:58.181Z,12.00
2019-03-20T13:41:00.642Z,11.92
2019-03-20T13:46:02.942Z,12.07
2019-03-20T13:51:05.182Z,12.03
2019-03-20T13:56:07.599Z,11.88
2019-03-20T14:01:09.585Z,12.07
2019-03-20T14:06:11.673Z,12.32
2019-03-20T14:11:14.223Z,12.59
2019-03-20T14:16:16.366Z,12.86
2019-03-20T14:21:18.426Z,12.55
2019-03-20T14:26:20.723Z,12.63
2019-03-20T14:31:24.786Z,12.90
2019-03-20T14:36:26.977Z,13.01
2019-03-20T14:41:29.018Z,12.99
2019-03-20T14:46:31.092Z,13.33
2019-03-20T14:51:33.474Z,13.27
2019-03-20T14:56:35.845Z,13.59
2019-03-20T15:01:37.906Z,13.53
2019-03-20T15:06:39.940Z,16.36
2019-03-20T15:11:42.146Z,18.92
2019-03-20T15:16:44.225Z,16.11
2019-03-20T15:21:46.285Z,15.19
2019-03-20T15:26:50.560Z,14.62
2019-03-20T15:31:52.727Z,14.47
2019-03-20T15:36:57.530Z,14.08
2019-03-20T15:41:59.738Z,13.66
2019-03-20T15:47:06.764Z,13.52
2019-03-20T15:52:08.805Z,13.23
2019-03-20T15:57:11.115Z,13.04
2019-03-20T16:02:13.210Z,12.74
2019-03-20T16:07:15.314Z,12.64
2019-03-20T16:12:17.369Z,12.43
2019-03-20T16:17:19.469Z,12.37
2019-03-20T16:22:21.488Z,12.35
2019-03-20T16:27:23.766Z,12.20
2019-03-20T16:32:25.991Z,12.06
2019-03-20T16:37:28.612Z,11.90
2019-03-20T16:42:30.738Z,11.81
2019-03-20T16:47:33.069Z,11.67
2019-03-20T16:52:36.268Z,11.57
2019-03-20T16:57:38.568Z,11.57
2019-03-20T17:02:40.760Z,11.40
2019-03-20T17:07:42.844Z,11.34
2019-03-20T17:12:45.102Z,11.08
2019-03-20T17:17:47.576Z,11.08
2019-03-20T17:22:49.917Z,10.91
2019-03-20T17:27:52.007Z,10.79
2019-03-20T17:32:54.148Z,10.56
2019-03-20T17:37:56.356Z,10.37
2019-03-20T17:42:58.512Z,10.30
2019-03-20T17:48:00.868Z,10.10
2019-03-20T17:53:03.733Z,9.99
2019-03-20T17:58:05.806Z,9.89
2019-03-20T18:03:08.141Z,9.81
2019-03-20T18:08:10.321Z,9.60
2019-03-20T18:13:12.475Z,9.60
2019-03-20T18:18:14.501Z,9.46
2019-03-20T18:23:16.779Z,9.40
2019-03-20T18:28:19.233Z,9.33
2019-03-20T18:33:22.872Z,9.24
2019-03-20T18:38:25.214Z,9.18
2019-03-20T18:43:27.295Z,9.23
2019-03-20T18:48:29.625Z,9.20
2019-03-20T18:53:31.966Z,8.97
2019-03-20T18:58:34.147Z,8.92
2019-03-20T19:03:39.060Z,8.81
2019-03-20T19:08:41.243Z,8.76
2019-03-20T19:13:43.453Z,8.77
2019-03-20T19:18:45.596Z,8.86
2019-03-20T19:23:47.702Z,8.76
2019-03-20T19:28:49.766Z,8.77
2019-03-20T19:33:52.116Z,8.61
2019-03-20T19:38:54.249Z,8.57
2019-03-20T19:43:56.320Z,8.53
2019-03-20T19:48:58.434Z,8.37
2019-03-20T19:54:00.642Z,8.48
2019-03-20T19:59:03.213Z,8.38
2019-03-20T20:04:05.299Z,8.35
2019-03-20T20:09:08.437Z,8.36
2019-03-20T20:14:10.583Z,8.34
2019-03-20T20:19:12.676Z,8.29
2019-03-20T20:24:14.786Z,8.25
2019-03-20T20:29:16.848Z,8.14
2019-03-20T20:34:19.025Z,8.15
2019-03-20T20:39:21.318Z,8.04
2019-03-20T20:44:23.402Z,8.19
2019-03-20T20:49:25.563Z,8.09
2019-03-20T20:54:27.768Z,8.05
2019-03-20T20:59:30.179Z,8.06
2019-03-20T21:04:32.503Z,7.89
2019-03-20T21:09:34.607Z,7.75
2019-03-20T21:14:36.743Z,7.69
2019-03-20T21:19:39.531Z,7.61
2019-03-20T21:24:42.220Z,7.49
2019-03-20T21:30:27.671Z,7.52
2019-03-20T21:36:25.143Z,7.44
2019-03-20T21:42:13.591Z,7.43
2019-03-20T21:47:34.049Z,7.35
2019-03-20T21:52:37.380Z,7.31
2019-03-20T21:58:05.546Z,7.24
2019-03-20T22:03:08.225Z,7.18
2019-03-20T22:08:10.870Z,7.09
2019-03-20T22:13:23.635Z,6.98
2019-03-20T22:19:03.021Z,6.96
2019-03-20T22:24:49.894Z,6.98
2019-03-20T22:29:52.458Z,7.01
2019-03-20T22:35:36.725Z,6.99
2019-03-20T22:41:28.303Z,6.90
2019-03-20T22:47:06.550Z,6.78
2019-03-20T22:52:37.269Z,6.78
2019-03-20T22:58:35.921Z,6.61
2019-03-20T23:03:42.441Z,6.54
2019-03-20T23:08:45.115Z,6.50
2019-03-20T23:13:47.773Z,6.42
2019-03-20T23:18:50.487Z,6.26
2019-03-20T23:23:53.183Z,6.25
2019-03-20T23:28:55.904Z,6.15
2019-03-20T23:33:58.611Z,6.10
2019-03-20T23:39:01.354Z,6.11
2019-03-20T23:44:03.911Z,6.12
2019-03-20T23:49:12.395Z,5.91
2019-03-20T23:54:18.438Z,5.96
2019-03-20T23:59:21.069Z,5.89
